Augusta, WV

2:40 PM EDT on September 03, 2015 (GMT -0400)
Ice Mountain | | Change Station
CLOSE
Current Station
Personal Weather Station
Location: Slanesville, WV
Elevation: 807 ft
Nearby Weather Stations

Elev 807 ft 39.35 °N, 78.50 °W | Updated 38 seconds ago

Partly Cloudy
Partly Cloudy
92.4 °F
Feels Like 98 °F
N
1.0
Wind Variable Wind from North
Gusts 3.0 mph

Today
High -- | Low -- °F
--% Chance of Precip.
Yesterday
High -- | Low -- °F
Precip. -- in
6:44 AM 7:42 PM
Waning Gibbous, 68% visible
Pressure 29.97 in
Visibility 10.0 miles
Clouds Clear
Heat Index 98 °F
Dew Point 69 °F
Humidity 47%
Rainfall 0.00 in
Snow Depth Not available.
UV 9 out of 12
Pollen 9.80 out of 12
Air Quality Not available.
Flu Activity Not available.
METAR KCBE 031825Z AUTO 11003KT 10SM CLR 30/20 A2997 RMK AO1
Pressure 29.97 in
Visibility 10.0 miles
Clouds Clear
Heat Index 98 °F
Dew Point 69 °F
Humidity 47%
Rainfall 0.00 in
Snow Depth Not available.
UV 9 out of 12
Pollen 9.80 out of 12
Air Quality Not available.
Flu Activity Not available.
METAR KCBE 031825Z AUTO 11003KT 10SM CLR 30/20 A2997 RMK AO1
Nowcast | as of 1:53 PM EDT on September 3, 2015

a strong thunderstorm will affect northeastern Allegany...north central Frederick...Morgan...northwestern Berkeley and northeastern Hampshire counties... At 152 PM EDT...a strong thunderstorm was near Paw Paw...moving southeast at 30 mph. Locations impacted include... Paw Paw...Greenwood...Johnsons Mill...Magnolia...Great Cacapon... Smith Crossroads...Highland Ridge...Berryville...Largent...Fishers bridge...ridge...Green Ridge...omps...Little Orleans...Valley View... Stotlers Crossroads...Valley High...Lineburg...Oakland and Rock Gap. Lat...Lon 3966 7835 3964 7834 3963 7833 3962 7827 3963 7826 3955 7806 3933 7825 3954 7856 3970 7844 time...Mot...loc 1752z 305deg 35kt 3956 7840

×

10-Day Weather Forecast

×

Almanac

Astronomy

Sep. 03, 2015 Rise Set
Actual Time
Civil Twilight
Nautical Twilight
Astronomical Twilight
Moon
Length of Visible Light
Length of Day
Tomorrow will be .
, % of the Moon is Illuminated

Today's Extremes

State Highs State Lows

Community

WunderPhotos

Upload Photos

1,852,001 photos uploaded!

WunderBlogs® & News

Nearby

Air Quality

  Air Quality AQ Index Pollutant
Not available.

Snow Depth

Station Depth Elevation

Earthquake Activity

City Distance Mag. Time & Date
Minimum magnitude displayed is 2.5.

Coastal Water Temperatures

Place Temperature

Stations

Nearby Weather Stations

Station Location Temp. Windchill Dew Point Humidity Wind Precip. Elev Updated Type